sensor_id;sensor_type;location;lat;lon;timestamp;temperature;humidity
38582;DHT22;24349;53.720;10.014;2023-11-21T00:02:20;8.40;99.90
38582;DHT22;24349;53.720;10.014;2023-11-21T00:04:47;8.40;99.90
38582;DHT22;24349;53.720;10.014;2023-11-21T00:07:13;8.30;99.90
38582;DHT22;24349;53.720;10.014;2023-11-21T00:09:40;8.30;99.90
38582;DHT22;24349;53.720;10.014;2023-11-21T00:12:07;8.20;99.90
38582;DHT22;24349;53.720;10.014;2023-11-21T00:14:38;8.20;99.90
38582;DHT22;24349;53.720;10.014;2023-11-21T00:17:04;8.20;99.90
38582;DHT22;24349;53.720;10.014;2023-11-21T00:19:31;8.10;99.90
38582;DHT22;24349;53.720;10.014;2023-11-21T00:21:56;8.00;99.90
38582;DHT22;24349;53.720;10.014;2023-11-21T00:24:24;8.00;99.90
38582;DHT22;24349;53.720;10.014;2023-11-21T00:26:50;8.00;99.90
38582;DHT22;24349;53.720;10.014;2023-11-21T00:29:16;8.00;99.90
38582;DHT22;24349;53.720;10.014;2023-11-21T00:31:43;8.10;99.90
38582;DHT22;24349;53.720;10.014;2023-11-21T00:34:09;8.10;99.90
38582;DHT22;24349;53.720;10.014;2023-11-21T00:36:35;8.00;99.90
38582;DHT22;24349;53.720;10.014;2023-11-21T00:39:00;8.00;99.90
38582;DHT22;24349;53.720;10.014;2023-11-21T00:41:29;8.00;99.90
38582;DHT22;24349;53.720;10.014;2023-11-21T00:43:54;7.90;99.90
38582;DHT22;24349;53.720;10.014;2023-11-21T00:46:20;8.00;99.90
38582;DHT22;24349;53.720;10.014;2023-11-21T00:48:46;7.90;99.90
38582;DHT22;24349;53.720;10.014;2023-11-21T00:51:12;7.80;99.90
38582;DHT22;24349;53.720;10.014;2023-11-21T00:53:37;7.80;99.90
38582;DHT22;24349;53.720;10.014;2023-11-21T00:56:03;7.70;99.90
38582;DHT22;24349;53.720;10.014;2023-11-21T00:58:29;7.70;99.90
38582;DHT22;24349;53.720;10.014;2023-11-21T01:00:55;7.70;99.90
38582;DHT22;24349;53.720;10.014;2023-11-21T01:03:21;7.70;99.90
38582;DHT22;24349;53.720;10.014;2023-11-21T01:05:47;7.70;99.90
38582;DHT22;24349;53.720;10.014;2023-11-21T01:08:15;7.70;99.90
38582;DHT22;24349;53.720;10.014;2023-11-21T01:10:41;7.60;99.90
38582;DHT22;24349;53.720;10.014;2023-11-21T01:13:06;7.60;99.90
38582;DHT22;24349;53.720;10.014;2023-11-21T01:15:33;7.50;99.90
38582;DHT22;24349;53.720;10.014;2023-11-21T01:17:59;7.50;99.90
38582;DHT22;24349;53.720;10.014;2023-11-21T01:20:25;7.60;99.90
38582;DHT22;24349;53.720;10.014;2023-11-21T01:22:50;7.50;99.90
38582;DHT22;24349;53.720;10.014;2023-11-21T01:25:16;7.50;99.90
38582;DHT22;24349;53.720;10.014;2023-11-21T01:27:42;7.50;99.90
38582;DHT22;24349;53.720;10.014;2023-11-21T01:30:08;7.60;99.90
38582;DHT22;24349;53.720;10.014;2023-11-21T01:32:36;7.60;99.90
38582;DHT22;24349;53.720;10.014;2023-11-21T01:35:02;7.50;99.90
38582;DHT22;24349;53.720;10.014;2023-11-21T01:37:28;7.50;99.90
38582;DHT22;24349;53.720;10.014;2023-11-21T01:39:56;7.50;99.90
38582;DHT22;24349;53.720;10.014;2023-11-21T01:42:22;7.50;99.90
38582;DHT22;24349;53.720;10.014;2023-11-21T01:44:47;7.50;99.90
38582;DHT22;24349;53.720;10.014;2023-11-21T01:47:14;7.50;99.90
38582;DHT22;24349;53.720;10.014;2023-11-21T01:49:44;7.40;99.90
38582;DHT22;24349;53.720;10.014;2023-11-21T01:52:10;7.50;99.90
38582;DHT22;24349;53.720;10.014;2023-11-21T01:54:37;7.40;99.90
38582;DHT22;24349;53.720;10.014;2023-11-21T01:57:04;7.40;99.90
38582;DHT22;24349;53.720;10.014;2023-11-21T01:59:38;7.40;99.90
38582;DHT22;24349;53.720;10.014;2023-11-21T02:02:07;7.40;99.90
38582;DHT22;24349;53.720;10.014;2023-11-21T02:04:34;7.30;99.90
38582;DHT22;24349;53.720;10.014;2023-11-21T02:07:00;7.30;99.90
38582;DHT22;24349;53.720;10.014;2023-11-21T02:09:27;7.30;99.90
38582;DHT22;24349;53.720;10.014;2023-11-21T02:11:53;7.20;99.90
38582;DHT22;24349;53.720;10.014;2023-11-21T02:14:22;7.20;99.90
38582;DHT22;24349;53.720;10.014;2023-11-21T02:16:51;7.20;99.90
38582;DHT22;24349;53.720;10.014;2023-11-21T02:19:21;7.30;99.90
38582;DHT22;24349;53.720;10.014;2023-11-21T02:21:50;7.30;99.90
38582;DHT22;24349;53.720;10.014;2023-11-21T02:24:19;7.20;99.90
38582;DHT22;24349;53.720;10.014;2023-11-21T02:26:44;7.20;99.90
38582;DHT22;24349;53.720;10.014;2023-11-21T02:29:11;7.20;99.90
38582;DHT22;24349;53.720;10.014;2023-11-21T02:31:38;7.20;99.90
38582;DHT22;24349;53.720;10.014;2023-11-21T02:34:14;7.20;99.90
38582;DHT22;24349;53.720;10.014;2023-11-21T02:36:39;7.20;99.90
38582;DHT22;24349;53.720;10.014;2023-11-21T02:39:05;7.10;99.90
38582;DHT22;24349;53.720;10.014;2023-11-21T02:41:32;7.10;99.90
38582;DHT22;24349;53.720;10.014;2023-11-21T02:43:58;7.10;99.90
38582;DHT22;24349;53.720;10.014;2023-11-21T02:46:23;7.10;99.90
38582;DHT22;24349;53.720;10.014;2023-11-21T02:48:49;7.20;99.90
38582;DHT22;24349;53.720;10.014;2023-11-21T02:51:16;7.20;99.90
38582;DHT22;24349;53.720;10.014;2023-11-21T02:53:42;7.20;99.90
38582;DHT22;24349;53.720;10.014;2023-11-21T02:56:07;7.20;99.90
38582;DHT22;24349;53.720;10.014;2023-11-21T02:58:33;7.10;99.90
38582;DHT22;24349;53.720;10.014;2023-11-21T03:00:59;7.10;99.90
38582;DHT22;24349;53.720;10.014;2023-11-21T03:03:24;7.10;99.90
38582;DHT22;24349;53.720;10.014;2023-11-21T03:05:50;7.00;99.90
38582;DHT22;24349;53.720;10.014;2023-11-21T03:08:16;7.00;99.90
38582;DHT22;24349;53.720;10.014;2023-11-21T03:10:42;7.00;99.90
38582;DHT22;24349;53.720;10.014;2023-11-21T03:13:07;7.00;99.90
38582;DHT22;24349;53.720;10.014;2023-11-21T03:15:33;7.00;99.90
38582;DHT22;24349;53.720;10.014;2023-11-21T03:18:00;7.00;99.90
38582;DHT22;24349;53.720;10.014;2023-11-21T03:20:26;7.00;99.90
38582;DHT22;24349;53.720;10.014;2023-11-21T03:22:51;7.00;99.90
38582;DHT22;24349;53.720;10.014;2023-11-21T03:25:17;7.00;99.90
38582;DHT22;24349;53.720;10.014;2023-11-21T03:27:42;7.00;99.90
38582;DHT22;24349;53.720;10.014;2023-11-21T03:30:10;7.00;99.90
38582;DHT22;24349;53.720;10.014;2023-11-21T03:32:36;7.10;99.90
38582;DHT22;24349;53.720;10.014;2023-11-21T03:35:02;7.10;99.90
38582;DHT22;24349;53.720;10.014;2023-11-21T03:37:28;7.10;99.90
38582;DHT22;24349;53.720;10.014;2023-11-21T03:39:55;7.10;99.90
38582;DHT22;24349;53.720;10.014;2023-11-21T03:42:21;7.20;99.90
38582;DHT22;24349;53.720;10.014;2023-11-21T03:44:47;7.20;99.90
38582;DHT22;24349;53.720;10.014;2023-11-21T03:47:12;7.20;99.90
38582;DHT22;24349;53.720;10.014;2023-11-21T03:49:38;7.20;99.90
38582;DHT22;24349;53.720;10.014;2023-11-21T03:52:05;7.20;99.90
38582;DHT22;24349;53.720;10.014;2023-11-21T03:54:31;7.20;99.90
38582;DHT22;24349;53.720;10.014;2023-11-21T03:56:56;7.20;99.90
38582;DHT22;24349;53.720;10.014;2023-11-21T03:59:22;7.20;99.90
38582;DHT22;24349;53.720;10.014;2023-11-21T04:01:50;7.20;99.90
38582;DHT22;24349;53.720;10.014;2023-11-21T04:04:15;7.20;99.90
38582;DHT22;24349;53.720;10.014;2023-11-21T04:06:41;7.20;99.90
38582;DHT22;24349;53.720;10.014;2023-11-21T04:09:07;7.20;99.90
38582;DHT22;24349;53.720;10.014;2023-11-21T04:11:32;7.30;99.90
38582;DHT22;24349;53.720;10.014;2023-11-21T04:13:58;7.20;99.90
38582;DHT22;24349;53.720;10.014;2023-11-21T04:16:24;7.20;99.90
38582;DHT22;24349;53.720;10.014;2023-11-21T04:18:50;7.20;99.90
38582;DHT22;24349;53.720;10.014;2023-11-21T04:21:15;7.20;99.90
38582;DHT22;24349;53.720;10.014;2023-11-21T04:23:42;7.20;99.90
38582;DHT22;24349;53.720;10.014;2023-11-21T04:26:07;7.20;99.90
38582;DHT22;24349;53.720;10.014;2023-11-21T04:28:33;7.20;99.90
38582;DHT22;24349;53.720;10.014;2023-11-21T04:31:00;7.20;99.90
38582;DHT22;24349;53.720;10.014;2023-11-21T04:33:25;7.20;99.90
38582;DHT22;24349;53.720;10.014;2023-11-21T04:35:51;7.10;99.90
38582;DHT22;24349;53.720;10.014;2023-11-21T04:38:17;7.10;99.90
38582;DHT22;24349;53.720;10.014;2023-11-21T04:40:42;7.10;99.90
38582;DHT22;24349;53.720;10.014;2023-11-21T04:43:08;7.10;99.90
38582;DHT22;24349;53.720;10.014;2023-11-21T04:45:34;7.10;99.90
38582;DHT22;24349;53.720;10.014;2023-11-21T04:47:59;7.10;99.90
38582;DHT22;24349;53.720;10.014;2023-11-21T04:50:25;7.10;99.90
38582;DHT22;24349;53.720;10.014;2023-11-21T04:52:52;7.10;99.90
38582;DHT22;24349;53.720;10.014;2023-11-21T04:55:18;7.10;99.90
38582;DHT22;24349;53.720;10.014;2023-11-21T04:57:44;7.10;99.90
38582;DHT22;24349;53.720;10.014;2023-11-21T05:00:11;7.10;99.90
38582;DHT22;24349;53.720;10.014;2023-11-21T05:02:38;7.10;99.90
38582;DHT22;24349;53.720;10.014;2023-11-21T05:05:03;7.10;99.90
38582;DHT22;24349;53.720;10.014;2023-11-21T05:07:31;7.10;99.90
38582;DHT22;24349;53.720;10.014;2023-11-21T05:09:57;7.10;99.90
38582;DHT22;24349;53.720;10.014;2023-11-21T05:12:24;7.10;99.90
38582;DHT22;24349;53.720;10.014;2023-11-21T05:14:50;7.10;99.90
38582;DHT22;24349;53.720;10.014;2023-11-21T05:17:16;7.20;99.90
38582;DHT22;24349;53.720;10.014;2023-11-21T05:19:42;7.10;99.90
38582;DHT22;24349;53.720;10.014;2023-11-21T05:22:08;7.10;99.90
38582;DHT22;24349;53.720;10.014;2023-11-21T05:24:34;7.10;99.90
38582;DHT22;24349;53.720;10.014;2023-11-21T05:27:00;7.10;99.90
38582;DHT22;24349;53.720;10.014;2023-11-21T05:29:26;7.10;99.90
38582;DHT22;24349;53.720;10.014;2023-11-21T05:31:52;7.10;99.90
38582;DHT22;24349;53.720;10.014;2023-11-21T05:34:18;7.10;99.90
38582;DHT22;24349;53.720;10.014;2023-11-21T05:36:46;7.20;99.90
38582;DHT22;24349;53.720;10.014;2023-11-21T05:39:11;7.20;99.90
38582;DHT22;24349;53.720;10.014;2023-11-21T05:41:37;7.20;99.90
38582;DHT22;24349;53.720;10.014;2023-11-21T05:44:03;7.20;99.90
38582;DHT22;24349;53.720;10.014;2023-11-21T05:46:28;7.20;99.90
38582;DHT22;24349;53.720;10.014;2023-11-21T05:48:54;7.20;99.90
38582;DHT22;24349;53.720;10.014;2023-11-21T05:51:20;7.20;99.90
38582;DHT22;24349;53.720;10.014;2023-11-21T05:53:46;7.20;99.90
38582;DHT22;24349;53.720;10.014;2023-11-21T05:56:12;7.20;99.90
38582;DHT22;24349;53.720;10.014;2023-11-21T05:58:39;7.20;99.90
38582;DHT22;24349;53.720;10.014;2023-11-21T06:01:05;7.20;99.90
38582;DHT22;24349;53.720;10.014;2023-11-21T06:03:35;7.30;99.90
38582;DHT22;24349;53.720;10.014;2023-11-21T06:06:00;7.20;99.90
38582;DHT22;24349;53.720;10.014;2023-11-21T06:08:26;7.20;99.90
38582;DHT22;24349;53.720;10.014;2023-11-21T06:10:52;7.20;99.90
38582;DHT22;24349;53.720;10.014;2023-11-21T06:13:17;7.20;99.90
38582;DHT22;24349;53.720;10.014;2023-11-21T06:15:50;7.30;99.90
38582;DHT22;24349;53.720;10.014;2023-11-21T06:18:15;7.20;99.90
38582;DHT22;24349;53.720;10.014;2023-11-21T06:20:41;7.30;99.90
38582;DHT22;24349;53.720;10.014;2023-11-21T06:23:06;7.20;99.90
38582;DHT22;24349;53.720;10.014;2023-11-21T06:25:32;7.20;99.90
38582;DHT22;24349;53.720;10.014;2023-11-21T06:28:01;7.20;99.90
38582;DHT22;24349;53.720;10.014;2023-11-21T06:30:27;7.20;99.90
38582;DHT22;24349;53.720;10.014;2023-11-21T06:32:54;7.20;99.90
38582;DHT22;24349;53.720;10.014;2023-11-21T06:35:21;7.20;99.90
38582;DHT22;24349;53.720;10.014;2023-11-21T06:37:47;7.20;99.90
38582;DHT22;24349;53.720;10.014;2023-11-21T06:40:13;7.20;99.90
38582;DHT22;24349;53.720;10.014;2023-11-21T06:42:40;7.20;99.90
38582;DHT22;24349;53.720;10.014;2023-11-21T06:45:07;7.30;99.90
38582;DHT22;24349;53.720;10.014;2023-11-21T06:47:33;7.20;99.90
38582;DHT22;24349;53.720;10.014;2023-11-21T06:49:58;7.20;99.90
38582;DHT22;24349;53.720;10.014;2023-11-21T06:52:24;7.20;99.90
38582;DHT22;24349;53.720;10.014;2023-11-21T06:54:49;7.20;99.90
38582;DHT22;24349;53.720;10.014;2023-11-21T06:57:15;7.30;99.90
38582;DHT22;24349;53.720;10.014;2023-11-21T06:59:41;7.30;99.90
38582;DHT22;24349;53.720;10.014;2023-11-21T07:02:07;7.30;99.90
38582;DHT22;24349;53.720;10.014;2023-11-21T07:04:33;7.20;99.90
38582;DHT22;24349;53.720;10.014;2023-11-21T07:06:59;7.20;99.90
38582;DHT22;24349;53.720;10.014;2023-11-21T07:09:24;7.30;99.90
38582;DHT22;24349;53.720;10.014;2023-11-21T07:11:52;7.30;99.90
38582;DHT22;24349;53.720;10.014;2023-11-21T07:14:17;7.20;99.90
38582;DHT22;24349;53.720;10.014;2023-11-21T07:16:45;7.20;99.90
38582;DHT22;24349;53.720;10.014;2023-11-21T07:19:11;7.20;99.90
38582;DHT22;24349;53.720;10.014;2023-11-21T07:21:37;7.30;99.90
38582;DHT22;24349;53.720;10.014;2023-11-21T07:24:05;7.30;99.90
38582;DHT22;24349;53.720;10.014;2023-11-21T07:26:34;7.30;99.90
38582;DHT22;24349;53.720;10.014;2023-11-21T07:29:01;7.40;99.90
38582;DHT22;24349;53.720;10.014;2023-11-21T07:31:27;7.30;99.90
38582;DHT22;24349;53.720;10.014;2023-11-21T07:33:52;7.30;99.90
38582;DHT22;24349;53.720;10.014;2023-11-21T07:36:19;7.30;99.90
38582;DHT22;24349;53.720;10.014;2023-11-21T07:38:46;7.20;99.90
38582;DHT22;24349;53.720;10.014;2023-11-21T07:41:12;7.30;99.90
38582;DHT22;24349;53.720;10.014;2023-11-21T07:43:41;7.30;99.90
38582;DHT22;24349;53.720;10.014;2023-11-21T07:46:06;7.40;99.90
38582;DHT22;24349;53.720;10.014;2023-11-21T07:48:33;7.40;99.90
38582;DHT22;24349;53.720;10.014;2023-11-21T07:51:00;7.40;99.90
38582;DHT22;24349;53.720;10.014;2023-11-21T07:53:26;7.40;99.90
38582;DHT22;24349;53.720;10.014;2023-11-21T07:55:54;7.40;99.90
38582;DHT22;24349;53.720;10.014;2023-11-21T07:58:20;7.40;99.90
38582;DHT22;24349;53.720;10.014;2023-11-21T08:00:46;7.40;99.90
38582;DHT22;24349;53.720;10.014;2023-11-21T08:03:13;7.40;99.90
38582;DHT22;24349;53.720;10.014;2023-11-21T08:05:39;7.40;99.90
38582;DHT22;24349;53.720;10.014;2023-11-21T08:08:05;7.30;99.90
38582;DHT22;24349;53.720;10.014;2023-11-21T08:10:31;7.40;99.90
38582;DHT22;24349;53.720;10.014;2023-11-21T08:12:57;7.40;99.90
38582;DHT22;24349;53.720;10.014;2023-11-21T08:15:23;7.40;99.90
38582;DHT22;24349;53.720;10.014;2023-11-21T08:17:49;7.40;99.90
38582;DHT22;24349;53.720;10.014;2023-11-21T08:20:15;7.40;99.90
38582;DHT22;24349;53.720;10.014;2023-11-21T08:22:42;7.40;99.90
38582;DHT22;24349;53.720;10.014;2023-11-21T08:25:08;7.40;99.90
38582;DHT22;24349;53.720;10.014;2023-11-21T08:27:34;7.50;99.90
38582;DHT22;24349;53.720;10.014;2023-11-21T08:30:03;7.50;99.90
38582;DHT22;24349;53.720;10.014;2023-11-21T08:32:29;7.60;99.90
38582;DHT22;24349;53.720;10.014;2023-11-21T08:34:59;7.50;99.90
38582;DHT22;24349;53.720;10.014;2023-11-21T08:37:25;7.40;99.90
38582;DHT22;24349;53.720;10.014;2023-11-21T08:39:53;7.40;99.90
38582;DHT22;24349;53.720;10.014;2023-11-21T08:42:19;7.30;99.90
38582;DHT22;24349;53.720;10.014;2023-11-21T08:44:45;7.30;99.90
38582;DHT22;24349;53.720;10.014;2023-11-21T08:47:11;7.20;99.90
38582;DHT22;24349;53.720;10.014;2023-11-21T08:49:37;7.20;99.90
38582;DHT22;24349;53.720;10.014;2023-11-21T08:52:03;7.30;99.90
38582;DHT22;24349;53.720;10.014;2023-11-21T08:54:30;7.30;99.90
38582;DHT22;24349;53.720;10.014;2023-11-21T08:56:56;7.30;99.90
38582;DHT22;24349;53.720;10.014;2023-11-21T08:59:24;7.30;99.90
38582;DHT22;24349;53.720;10.014;2023-11-21T09:01:50;7.30;99.90
38582;DHT22;24349;53.720;10.014;2023-11-21T09:04:16;7.30;99.90
38582;DHT22;24349;53.720;10.014;2023-11-21T09:06:41;7.30;99.90
38582;DHT22;24349;53.720;10.014;2023-11-21T09:09:07;7.30;99.90
38582;DHT22;24349;53.720;10.014;2023-11-21T09:11:34;7.30;99.90
38582;DHT22;24349;53.720;10.014;2023-11-21T09:14:00;7.40;99.90
38582;DHT22;24349;53.720;10.014;2023-11-21T09:16:26;7.40;99.90
38582;DHT22;24349;53.720;10.014;2023-11-21T09:18:51;7.40;99.90
38582;DHT22;24349;53.720;10.014;2023-11-21T09:21:17;7.50;99.90
38582;DHT22;24349;53.720;10.014;2023-11-21T09:23:44;7.60;99.90
38582;DHT22;24349;53.720;10.014;2023-11-21T09:26:10;7.60;99.90
38582;DHT22;24349;53.720;10.014;2023-11-21T09:28:36;7.50;99.90
38582;DHT22;24349;53.720;10.014;2023-11-21T09:31:06;7.40;99.90
38582;DHT22;24349;53.720;10.014;2023-11-21T09:33:34;7.40;99.90
38582;DHT22;24349;53.720;10.014;2023-11-21T09:36:00;7.40;99.90
38582;DHT22;24349;53.720;10.014;2023-11-21T09:38:26;7.40;99.90
38582;DHT22;24349;53.720;10.014;2023-11-21T09:40:54;7.40;99.90
38582;DHT22;24349;53.720;10.014;2023-11-21T09:43:20;7.40;99.90
38582;DHT22;24349;53.720;10.014;2023-11-21T09:45:49;7.40;99.90
38582;DHT22;24349;53.720;10.014;2023-11-21T09:48:20;7.40;99.90
38582;DHT22;24349;53.720;10.014;2023-11-21T09:50:47;7.40;99.90
38582;DHT22;24349;53.720;10.014;2023-11-21T09:53:20;7.50;99.90
38582;DHT22;24349;53.720;10.014;2023-11-21T09:55:53;7.50;99.90
38582;DHT22;24349;53.720;10.014;2023-11-21T09:58:20;7.50;99.90
38582;DHT22;24349;53.720;10.014;2023-11-21T10:00:49;7.60;99.90
38582;DHT22;24349;53.720;10.014;2023-11-21T10:03:17;7.50;99.90
38582;DHT22;24349;53.720;10.014;2023-11-21T10:05:43;7.60;99.90
38582;DHT22;24349;53.720;10.014;2023-11-21T10:08:10;7.80;99.90
38582;DHT22;24349;53.720;10.014;2023-11-21T10:10:37;7.80;99.90
38582;DHT22;24349;53.720;10.014;2023-11-21T10:13:05;7.90;99.90
38582;DHT22;24349;53.720;10.014;2023-11-21T10:15:34;7.90;99.90
38582;DHT22;24349;53.720;10.014;2023-11-21T10:18:05;7.90;99.90
38582;DHT22;24349;53.720;10.014;2023-11-21T10:20:32;7.90;99.90
38582;DHT22;24349;53.720;10.014;2023-11-21T10:23:03;7.90;99.90
38582;DHT22;24349;53.720;10.014;2023-11-21T10:25:30;7.90;99.90
38582;DHT22;24349;53.720;10.014;2023-11-21T10:28:01;7.90;99.90
38582;DHT22;24349;53.720;10.014;2023-11-21T10:30:38;7.80;99.90
38582;DHT22;24349;53.720;10.014;2023-11-21T10:33:04;7.70;99.90
38582;DHT22;24349;53.720;10.014;2023-11-21T10:35:59;7.60;99.90
38582;DHT22;24349;53.720;10.014;2023-11-21T10:38:26;7.50;99.90
38582;DHT22;24349;53.720;10.014;2023-11-21T10:40:54;7.50;99.90
38582;DHT22;24349;53.720;10.014;2023-11-21T10:43:24;7.40;99.90
38582;DHT22;24349;53.720;10.014;2023-11-21T10:45:50;7.40;99.90
38582;DHT22;24349;53.720;10.014;2023-11-21T10:48:16;7.30;99.90
38582;DHT22;24349;53.720;10.014;2023-11-21T10:50:43;7.30;99.90
38582;DHT22;24349;53.720;10.014;2023-11-21T10:53:09;7.20;99.90
38582;DHT22;24349;53.720;10.014;2023-11-21T10:55:37;7.20;99.90
38582;DHT22;24349;53.720;10.014;2023-11-21T10:58:03;7.10;99.90
38582;DHT22;24349;53.720;10.014;2023-11-21T11:00:32;7.10;99.90
38582;DHT22;24349;53.720;10.014;2023-11-21T11:02:59;7.10;99.90
38582;DHT22;24349;53.720;10.014;2023-11-21T11:05:27;7.00;99.90
38582;DHT22;24349;53.720;10.014;2023-11-21T11:08:08;7.10;99.90
38582;DHT22;24349;53.720;10.014;2023-11-21T11:10:35;7.00;96.20
38582;DHT22;24349;53.720;10.014;2023-11-21T11:13:02;7.10;99.90
38582;DHT22;24349;53.720;10.014;2023-11-21T11:15:28;7.10;99.90
38582;DHT22;24349;53.720;10.014;2023-11-21T11:17:54;7.10;99.90
38582;DHT22;24349;53.720;10.014;2023-11-21T11:20:35;7.10;99.90
38582;DHT22;24349;53.720;10.014;2023-11-21T11:34:26;7.30;99.90
38582;DHT22;24349;53.720;10.014;2023-11-21T11:37:07;7.40;99.90
38582;DHT22;24349;53.720;10.014;2023-11-21T11:39:39;7.50;99.90
38582;DHT22;24349;53.720;10.014;2023-11-21T11:42:08;7.40;97.80
38582;DHT22;24349;53.720;10.014;2023-11-21T11:47:28;7.50;99.90
38582;DHT22;24349;53.720;10.014;2023-11-21T11:52:36;7.60;99.90
38582;DHT22;24349;53.720;10.014;2023-11-21T11:55:04;7.50;99.90
38582;DHT22;24349;53.720;10.014;2023-11-21T11:57:31;7.60;99.90
38582;DHT22;24349;53.720;10.014;2023-11-21T12:00:17;7.50;99.90
38582;DHT22;24349;53.720;10.014;2023-11-21T12:02:51;7.50;99.90
38582;DHT22;24349;53.720;10.014;2023-11-21T12:05:18;7.50;99.90
38582;DHT22;24349;53.720;10.014;2023-11-21T12:10:23;7.50;99.90
38582;DHT22;24349;53.720;10.014;2023-11-21T12:12:51;7.40;99.90
38582;DHT22;24349;53.720;10.014;2023-11-21T12:15:18;7.40;99.90
38582;DHT22;24349;53.720;10.014;2023-11-21T12:17:45;7.20;99.90
38582;DHT22;24349;53.720;10.014;2023-11-21T12:20:16;7.10;99.90
38582;DHT22;24349;53.720;10.014;2023-11-21T12:22:44;7.10;99.90
38582;DHT22;24349;53.720;10.014;2023-11-21T12:25:13;7.10;99.90
38582;DHT22;24349;53.720;10.014;2023-11-21T12:27:42;7.10;99.90
38582;DHT22;24349;53.720;10.014;2023-11-21T12:30:09;7.20;99.90
38582;DHT22;24349;53.720;10.014;2023-11-21T12:32:39;7.20;99.90
38582;DHT22;24349;53.720;10.014;2023-11-21T12:35:07;7.20;99.90
38582;DHT22;24349;53.720;10.014;2023-11-21T12:37:33;7.20;99.90
38582;DHT22;24349;53.720;10.014;2023-11-21T12:39:59;7.20;99.90
38582;DHT22;24349;53.720;10.014;2023-11-21T12:42:25;7.20;99.90
38582;DHT22;24349;53.720;10.014;2023-11-21T12:45:27;7.20;99.90
38582;DHT22;24349;53.720;10.014;2023-11-21T12:48:00;7.20;99.90
38582;DHT22;24349;53.720;10.014;2023-11-21T12:50:30;7.10;99.90
38582;DHT22;24349;53.720;10.014;2023-11-21T12:53:01;7.10;99.90
38582;DHT22;24349;53.720;10.014;2023-11-21T12:55:33;7.10;99.90
38582;DHT22;24349;53.720;10.014;2023-11-21T12:58:01;7.00;99.90
38582;DHT22;24349;53.720;10.014;2023-11-21T13:00:45;7.00;99.90
38582;DHT22;24349;53.720;10.014;2023-11-21T13:03:13;7.00;99.90
38582;DHT22;24349;53.720;10.014;2023-11-21T13:05:42;7.00;99.90
38582;DHT22;24349;53.720;10.014;2023-11-21T13:08:10;6.90;99.90
38582;DHT22;24349;53.720;10.014;2023-11-21T13:10:44;6.80;99.90
38582;DHT22;24349;53.720;10.014;2023-11-21T13:13:12;6.80;99.90
38582;DHT22;24349;53.720;10.014;2023-11-21T13:16:01;6.90;99.90
38582;DHT22;24349;53.720;10.014;2023-11-21T13:18:29;6.80;99.90
38582;DHT22;24349;53.720;10.014;2023-11-21T13:20:58;6.80;99.90
38582;DHT22;24349;53.720;10.014;2023-11-21T13:23:24;6.80;99.90
38582;DHT22;24349;53.720;10.014;2023-11-21T13:25:51;6.80;99.90
38582;DHT22;24349;53.720;10.014;2023-11-21T13:28:17;6.90;99.90
38582;DHT22;24349;53.720;10.014;2023-11-21T13:30:46;6.90;99.90
38582;DHT22;24349;53.720;10.014;2023-11-21T13:33:13;7.00;99.90
38582;DHT22;24349;53.720;10.014;2023-11-21T13:35:43;7.00;99.90
38582;DHT22;24349;53.720;10.014;2023-11-21T13:38:15;7.00;99.90
38582;DHT22;24349;53.720;10.014;2023-11-21T13:40:52;7.00;99.90
38582;DHT22;24349;53.720;10.014;2023-11-21T13:43:25;7.00;99.90
38582;DHT22;24349;53.720;10.014;2023-11-21T13:45:52;6.90;99.90
38582;DHT22;24349;53.720;10.014;2023-11-21T13:48:28;6.90;99.90
38582;DHT22;24349;53.720;10.014;2023-11-21T13:51:03;6.90;99.90
38582;DHT22;24349;53.720;10.014;2023-11-21T13:53:41;6.80;99.90
38582;DHT22;24349;53.720;10.014;2023-11-21T13:56:08;6.70;99.90
38582;DHT22;24349;53.720;10.014;2023-11-21T13:58:34;6.60;99.90
38582;DHT22;24349;53.720;10.014;2023-11-21T14:01:23;6.60;99.90
38582;DHT22;24349;53.720;10.014;2023-11-21T14:04:00;6.50;99.90
38582;DHT22;24349;53.720;10.014;2023-11-21T14:06:42;6.50;99.90
38582;DHT22;24349;53.720;10.014;2023-11-21T14:09:21;6.50;99.90
38582;DHT22;24349;53.720;10.014;2023-11-21T14:11:57;6.40;99.90
38582;DHT22;24349;53.720;10.014;2023-11-21T14:14:25;6.40;99.90
38582;DHT22;24349;53.720;10.014;2023-11-21T14:16:51;6.30;99.90
38582;DHT22;24349;53.720;10.014;2023-11-21T14:19:18;6.20;99.90
38582;DHT22;24349;53.720;10.014;2023-11-21T14:21:44;6.30;99.90
38582;DHT22;24349;53.720;10.014;2023-11-21T14:24:11;6.20;99.90
38582;DHT22;24349;53.720;10.014;2023-11-21T14:26:40;6.30;99.90
38582;DHT22;24349;53.720;10.014;2023-11-21T14:29:06;6.40;99.90
38582;DHT22;24349;53.720;10.014;2023-11-21T14:31:32;6.40;99.90
38582;DHT22;24349;53.720;10.014;2023-11-21T14:33:59;6.40;99.90
38582;DHT22;24349;53.720;10.014;2023-11-21T14:36:26;6.40;99.90
38582;DHT22;24349;53.720;10.014;2023-11-21T14:38:52;6.40;99.90
38582;DHT22;24349;53.720;10.014;2023-11-21T14:41:19;6.40;99.90
38582;DHT22;24349;53.720;10.014;2023-11-21T14:43:44;6.40;99.90
38582;DHT22;24349;53.720;10.014;2023-11-21T14:46:13;6.40;99.90
38582;DHT22;24349;53.720;10.014;2023-11-21T14:48:42;6.40;99.90
38582;DHT22;24349;53.720;10.014;2023-11-21T14:51:11;6.30;99.90
38582;DHT22;24349;53.720;10.014;2023-11-21T14:53:55;6.30;99.90
38582;DHT22;24349;53.720;10.014;2023-11-21T14:56:26;6.30;99.90
38582;DHT22;24349;53.720;10.014;2023-11-21T14:58:56;6.20;99.90
38582;DHT22;24349;53.720;10.014;2023-11-21T15:01:23;6.20;99.90
38582;DHT22;24349;53.720;10.014;2023-11-21T15:04:08;6.30;99.90
38582;DHT22;24349;53.720;10.014;2023-11-21T15:06:40;6.10;99.90
38582;DHT22;24349;53.720;10.014;2023-11-21T15:09:08;6.20;99.90
38582;DHT22;24349;53.720;10.014;2023-11-21T15:11:35;6.30;99.90
38582;DHT22;24349;53.720;10.014;2023-11-21T15:14:02;6.30;99.90
38582;DHT22;24349;53.720;10.014;2023-11-21T15:16:32;6.30;99.90
38582;DHT22;24349;53.720;10.014;2023-11-21T15:18:58;6.20;99.90
38582;DHT22;24349;53.720;10.014;2023-11-21T15:21:24;6.10;99.90
38582;DHT22;24349;53.720;10.014;2023-11-21T15:23:50;6.20;99.90
38582;DHT22;24349;53.720;10.014;2023-11-21T15:26:16;6.20;99.90
38582;DHT22;24349;53.720;10.014;2023-11-21T15:28:42;6.30;99.90
38582;DHT22;24349;53.720;10.014;2023-11-21T15:31:08;6.20;99.90
38582;DHT22;24349;53.720;10.014;2023-11-21T15:33:34;6.20;99.90
38582;DHT22;24349;53.720;10.014;2023-11-21T15:36:02;6.20;99.90
38582;DHT22;24349;53.720;10.014;2023-11-21T15:38:29;6.10;99.90
38582;DHT22;24349;53.720;10.014;2023-11-21T15:40:55;6.10;99.90
38582;DHT22;24349;53.720;10.014;2023-11-21T15:43:24;6.10;99.90
38582;DHT22;24349;53.720;10.014;2023-11-21T15:45:50;6.10;99.90
38582;DHT22;24349;53.720;10.014;2023-11-21T15:48:15;6.10;99.90
38582;DHT22;24349;53.720;10.014;2023-11-21T15:50:42;6.00;99.90
38582;DHT22;24349;53.720;10.014;2023-11-21T15:53:07;6.00;99.90